createdAt,value
2022-08-01T00:02:56.486Z,26.50
2022-08-01T00:08:00.835Z,26.30
2022-08-01T00:13:03.902Z,26.20
2022-08-01T00:18:06.932Z,26.00
2022-08-01T00:23:11.145Z,25.80
2022-08-01T00:28:14.503Z,25.70
2022-08-01T00:33:17.362Z,25.70
2022-08-01T00:38:21.588Z,25.70
2022-08-01T00:43:24.620Z,25.70
2022-08-01T00:48:27.511Z,25.40
2022-08-01T00:53:51.286Z,25.50
2022-08-01T00:58:56.068Z,25.60
2022-08-01T01:04:00.109Z,25.50
2022-08-01T01:09:18.739Z,25.40
2022-08-01T01:14:29.934Z,25.40
2022-08-01T01:19:36.729Z,25.10
2022-08-01T01:24:49.065Z,24.70
2022-08-01T01:29:59.787Z,24.60
2022-08-01T01:35:07.394Z,24.70
2022-08-01T01:40:13.064Z,24.90
2022-08-01T01:45:18.076Z,24.70
2022-08-01T01:50:22.846Z,24.70
2022-08-01T01:55:27.623Z,24.70
2022-08-01T02:00:34.367Z,24.80
2022-08-01T02:05:39.439Z,24.80
2022-08-01T02:11:03.147Z,24.90
2022-08-01T02:16:08.141Z,24.80
2022-08-01T02:21:15.697Z,24.80
2022-08-01T02:26:20.163Z,24.70
2022-08-01T02:31:24.806Z,24.50
2022-08-01T02:36:33.003Z,24.10
2022-08-01T02:41:40.918Z,24.20
2022-08-01T02:46:51.180Z,24.40
2022-08-01T02:51:56.770Z,24.30
2022-08-01T02:57:01.327Z,24.30
2022-08-01T03:02:07.251Z,24.30
2022-08-01T03:07:14.436Z,24.30
2022-08-01T03:12:20.804Z,24.10
2022-08-01T03:17:27.429Z,24.00
2022-08-01T03:22:34.315Z,23.70
2022-08-01T03:27:38.965Z,23.90
2022-08-01T03:32:43.436Z,23.80
2022-08-01T03:38:14.802Z,23.60
2022-08-01T03:43:19.250Z,23.60
2022-08-01T03:48:30.634Z,23.60
2022-08-01T03:53:35.404Z,23.60
2022-08-01T03:58:41.694Z,23.50
2022-08-01T04:03:46.799Z,23.60
2022-08-01T04:08:57.201Z,23.60
2022-08-01T04:14:00.084Z,23.60
2022-08-01T04:19:04.726Z,23.70
2022-08-01T04:24:12.757Z,23.80
2022-08-01T04:29:18.362Z,23.70
2022-08-01T04:34:26.519Z,23.60
2022-08-01T04:39:33.059Z,23.60
2022-08-01T04:44:54.122Z,23.60
2022-08-01T04:49:58.951Z,23.60
2022-08-01T04:55:01.851Z,23.40
2022-08-01T05:00:07.485Z,23.50
2022-08-01T05:05:13.583Z,23.50
2022-08-01T05:10:16.609Z,23.60
2022-08-01T05:15:19.623Z,23.60
2022-08-01T05:20:23.897Z,23.70
2022-08-01T05:25:54.361Z,23.70
2022-08-01T05:30:49.874Z,23.90
2022-08-01T05:35:54.235Z,24.20
2022-08-01T05:40:57.175Z,24.20
2022-08-01T05:46:00.320Z,24.50
2022-08-01T05:51:04.824Z,24.60
2022-08-01T05:56:07.838Z,24.80
2022-08-01T06:01:11.104Z,25.00
2022-08-01T06:06:16.339Z,25.30
2022-08-01T06:11:19.270Z,25.30
2022-08-01T06:16:22.150Z,25.60
2022-08-01T06:21:26.377Z,25.70
2022-08-01T06:26:29.292Z,25.90
2022-08-01T06:31:33.874Z,26.00
2022-08-01T06:36:38.370Z,26.00
2022-08-01T06:41:42.502Z,26.00
2022-08-01T06:46:45.380Z,26.10
2022-08-01T06:51:49.698Z,26.30
2022-08-01T06:56:52.611Z,26.30
2022-08-01T07:01:55.486Z,26.30
2022-08-01T07:06:59.756Z,26.40
2022-08-01T07:12:02.774Z,26.30
2022-08-01T07:17:05.739Z,26.50
2022-08-01T07:22:09.959Z,26.60
2022-08-01T07:27:24.208Z,26.70
2022-08-01T07:32:30.255Z,26.60
2022-08-01T07:37:42.127Z,26.80
2022-08-01T07:42:51.739Z,27.10
2022-08-01T07:47:54.763Z,27.00
2022-08-01T07:52:59.118Z,26.70
2022-08-01T07:58:02.773Z,26.80
2022-08-01T08:03:06.115Z,26.70
2022-08-01T08:08:11.229Z,26.70
2022-08-01T08:13:14.180Z,26.90
2022-08-01T08:18:17.367Z,27.10
2022-08-01T08:23:42.480Z,27.50
2022-08-01T08:28:47.362Z,27.70
2022-08-01T08:33:50.267Z,27.90
2022-08-01T08:38:54.684Z,27.60
2022-08-01T08:43:58.492Z,27.70
2022-08-01T08:49:02.679Z,27.30
2022-08-01T08:54:13.682Z,27.70
2022-08-01T08:59:16.623Z,27.70
2022-08-01T09:04:19.846Z,27.70
2022-08-01T09:09:26.939Z,28.00
2022-08-01T09:14:31.421Z,27.90
2022-08-01T09:19:41.345Z,27.80
2022-08-01T09:24:59.638Z,27.90
2022-08-01T09:30:19.645Z,28.00
2022-08-01T09:35:30.839Z,28.30
2022-08-01T09:40:49.249Z,28.30
2022-08-01T09:45:53.561Z,28.30
2022-08-01T09:51:00.851Z,28.50
2022-08-01T09:56:13.586Z,28.50
2022-08-01T10:01:16.555Z,28.40
2022-08-01T10:06:24.992Z,28.30
2022-08-01T10:11:36.152Z,28.40
2022-08-01T10:16:41.197Z,28.40
2022-08-01T10:21:58.263Z,28.50
2022-08-01T10:27:08.393Z,28.70
2022-08-01T10:32:12.583Z,28.60
2022-08-01T10:37:16.865Z,28.50
2022-08-01T10:42:21.613Z,28.80
2022-08-01T10:47:49.887Z,29.10
2022-08-01T10:53:16.658Z,29.70
2022-08-01T10:58:29.986Z,29.70
2022-08-01T11:03:56.119Z,29.80
2022-08-01T11:09:00.859Z,29.80
2022-08-01T11:14:10.469Z,30.20
2022-08-01T11:19:13.640Z,30.50
2022-08-01T11:24:16.570Z,30.00
2022-08-01T11:29:22.343Z,29.50
2022-08-01T11:34:54.511Z,29.30
2022-08-01T11:40:16.636Z,28.90
2022-08-01T11:45:21.956Z,28.90
2022-08-01T11:50:35.757Z,29.00
2022-08-01T11:55:38.633Z,29.20
2022-08-01T12:00:44.044Z,29.10
2022-08-01T12:05:50.047Z,29.30
2022-08-01T12:10:52.977Z,29.30
2022-08-01T12:16:10.943Z,29.00
2022-08-01T12:21:13.849Z,29.20
2022-08-01T12:26:31.890Z,29.40
2022-08-01T12:31:36.845Z,29.60
2022-08-01T12:36:39.746Z,29.70
2022-08-01T12:41:45.197Z,29.70
2022-08-01T12:46:49.619Z,29.90
2022-08-01T12:51:56.961Z,30.00
2022-08-01T12:57:00.552Z,30.20
2022-08-01T13:02:12.088Z,30.50
2022-08-01T13:07:15.055Z,30.40
2022-08-01T13:12:17.994Z,30.70
2022-08-01T13:17:33.618Z,30.80
2022-08-01T13:22:37.419Z,30.00
2022-08-01T13:27:41.006Z,30.00
2022-08-01T13:33:02.649Z,30.20
2022-08-01T13:38:05.522Z,30.10
2022-08-01T13:43:08.730Z,29.80
2022-08-01T13:48:19.093Z,29.90
2022-08-01T13:53:22.770Z,29.60
2022-08-01T13:58:25.674Z,30.10
2022-08-01T14:03:33.812Z,30.20
2022-08-01T14:08:36.937Z,30.20
2022-08-01T14:13:45.144Z,30.40
2022-08-01T14:18:51.178Z,30.10
2022-08-01T14:23:54.091Z,30.10
2022-08-01T14:28:57.005Z,30.20
2022-08-01T14:34:01.206Z,30.20
2022-08-01T14:39:04.381Z,30.00
2022-08-01T14:44:07.444Z,29.70
2022-08-01T14:49:11.730Z,29.80
2022-08-01T14:54:14.674Z,29.80
2022-08-01T14:59:21.768Z,30.00
2022-08-01T15:04:27.509Z,30.10
2022-08-01T15:09:30.420Z,30.20
2022-08-01T15:14:51.817Z,30.00
2022-08-01T15:19:58.232Z,29.60
2022-08-01T15:25:03.280Z,29.70
2022-08-01T15:30:10.195Z,29.70
2022-08-01T15:35:17.293Z,29.70
2022-08-01T15:40:20.801Z,29.90
2022-08-01T15:51:09.553Z,29.80
2022-08-01T15:56:13.133Z,29.50
2022-08-01T16:01:22.089Z,29.70
2022-08-01T16:06:27.855Z,30.00
2022-08-01T16:11:31.861Z,29.60
2022-08-01T16:16:34.880Z,29.30
2022-08-01T16:21:56.535Z,29.50
2022-08-01T16:27:05.836Z,29.50
2022-08-01T16:32:23.792Z,29.60
2022-08-01T16:37:32.925Z,29.70
2022-08-01T16:42:55.607Z,29.40
2022-08-01T16:48:01.741Z,29.50
2022-08-01T16:53:13.101Z,29.40
2022-08-01T16:58:16.903Z,29.10
2022-08-01T17:03:51.790Z,29.20
2022-08-01T17:08:50.737Z,29.00
2022-08-01T17:14:03.125Z,28.80
2022-08-01T17:19:06.266Z,28.60
2022-08-01T17:24:16.373Z,28.60
2022-08-01T17:29:21.625Z,28.50
2022-08-01T17:40:37.502Z,28.70
2022-08-01T17:45:51.444Z,28.80
2022-08-01T17:50:54.724Z,28.90
2022-08-01T17:56:01.678Z,28.90
2022-08-01T18:01:05.071Z,28.90
2022-08-01T18:06:10.860Z,28.80
2022-08-01T18:11:16.095Z,28.80
2022-08-01T18:16:19.074Z,28.80
2022-08-01T18:21:24.662Z,28.90
2022-08-01T18:26:29.716Z,28.70
2022-08-01T18:31:33.180Z,28.60
2022-08-01T18:36:40.407Z,28.50
2022-08-01T18:41:45.810Z,28.40
2022-08-01T18:46:55.325Z,28.40
2022-08-01T18:51:58.713Z,28.40
2022-08-01T18:57:03.250Z,28.40
2022-08-01T19:02:06.499Z,28.10
2022-08-01T19:07:11.962Z,27.70
2022-08-01T19:12:17.257Z,27.90
2022-08-01T19:17:34.154Z,27.90
2022-08-01T19:22:37.524Z,28.00
2022-08-01T19:27:46.671Z,27.60
2022-08-01T19:32:50.025Z,27.50
2022-08-01T19:37:54.212Z,27.70
2022-08-01T19:43:00.744Z,27.70
2022-08-01T19:48:20.560Z,27.60
2022-08-01T19:59:38.084Z,27.60
2022-08-01T20:04:43.712Z,27.40
2022-08-01T20:09:50.697Z,27.50
2022-08-01T20:14:59.806Z,27.50
2022-08-01T20:20:08.611Z,27.20
2022-08-01T20:25:12.605Z,27.10
2022-08-01T20:30:17.026Z,27.30
2022-08-01T20:35:23.448Z,27.40
2022-08-01T20:40:46.127Z,27.00
2022-08-01T20:45:51.542Z,27.00
2022-08-01T20:51:12.676Z,27.00
2022-08-01T20:56:29.777Z,26.80
2022-08-01T21:01:39.981Z,26.80
2022-08-01T21:06:50.792Z,26.80
2022-08-01T21:12:02.102Z,26.80
2022-08-01T21:17:13.312Z,26.70
2022-08-01T21:22:27.172Z,26.70
2022-08-01T21:27:33.793Z,26.40
2022-08-01T21:32:38.735Z,26.30
2022-08-01T21:37:44.428Z,26.10
2022-08-01T21:42:48.695Z,26.00
2022-08-01T21:47:54.201Z,26.10
2022-08-01T21:53:09.527Z,26.00
2022-08-01T21:58:22.606Z,26.00
2022-08-01T22:03:31.425Z,25.60
2022-08-01T22:08:37.070Z,25.70
2022-08-01T22:13:40.008Z,25.90
2022-08-01T22:18:45.169Z,25.70
2022-08-01T22:23:48.920Z,25.90
2022-08-01T22:28:53.031Z,25.40
2022-08-01T22:33:57.650Z,25.50
2022-08-01T22:39:00.636Z,25.50
2022-08-01T22:44:09.172Z,25.60
2022-08-01T22:49:22.099Z,25.60
2022-08-01T22:54:35.706Z,25.20
2022-08-01T22:59:46.098Z,25.20
2022-08-01T23:04:52.280Z,25.10
2022-08-01T23:09:57.008Z,25.00
2022-08-01T23:15:01.897Z,25.00
2022-08-01T23:20:08.407Z,24.90
2022-08-01T23:25:13.650Z,24.20
2022-08-01T23:30:16.604Z,24.20
2022-08-01T23:35:21.524Z,24.30
2022-08-01T23:40:25.046Z,24.40
2022-08-01T23:45:28.459Z,24.20
2022-08-01T23:50:52.773Z,24.20
2022-08-01T23:55:55.712Z,24.30
